createdAt,value
2018-12-05T00:00:30.152Z,0.20
2018-12-05T00:03:03.879Z,0.60
2018-12-05T00:05:37.754Z,0.30
2018-12-05T00:08:11.421Z,0.23
2018-12-05T00:10:45.265Z,0.80
2018-12-05T00:13:18.896Z,0.40
2018-12-05T00:15:52.601Z,0.50
2018-12-05T00:18:26.344Z,0.53
2018-12-05T00:21:00.200Z,0.50
2018-12-05T00:23:34.477Z,0.30
2018-12-05T00:26:08.481Z,0.40
2018-12-05T00:28:42.432Z,0.30
2018-12-05T00:31:16.515Z,0.40
2018-12-05T00:33:50.333Z,0.30
2018-12-05T00:36:24.066Z,0.40
2018-12-05T00:38:58.235Z,0.37
2018-12-05T00:41:32.055Z,0.30
2018-12-05T00:44:05.732Z,0.40
2018-12-05T00:46:39.584Z,0.30
2018-12-05T00:49:13.375Z,0.40
2018-12-05T00:51:47.247Z,0.37
2018-12-05T00:54:20.881Z,0.40
2018-12-05T00:56:54.537Z,0.40
2018-12-05T00:59:28.351Z,0.33
2018-12-05T01:02:01.947Z,0.33
2018-12-05T01:04:36.098Z,0.20
2018-12-05T01:07:09.849Z,0.23
2018-12-05T01:09:43.602Z,0.10
2018-12-05T01:12:17.379Z,0.20
2018-12-05T01:14:50.951Z,0.30
2018-12-05T01:17:24.683Z,0.20
2018-12-05T01:19:58.333Z,0.50
2018-12-05T01:22:32.193Z,0.27
2018-12-05T01:25:05.930Z,0.20
2018-12-05T01:27:39.564Z,0.20
2018-12-05T01:30:13.508Z,0.23
2018-12-05T01:32:47.369Z,0.27
2018-12-05T01:35:21.118Z,0.30
2018-12-05T01:37:54.959Z,0.10
2018-12-05T01:40:28.819Z,0.23
2018-12-05T01:43:02.602Z,0.23
2018-12-05T01:45:36.437Z,0.10
2018-12-05T01:48:10.236Z,0.20
2018-12-05T01:50:43.977Z,0.30
2018-12-05T01:53:17.589Z,0.20
2018-12-05T01:55:51.239Z,0.30
2018-12-05T01:58:25.009Z,0.30
2018-12-05T02:00:59.206Z,0.10
2018-12-05T02:03:32.940Z,0.30
2018-12-05T02:06:06.648Z,0.17
2018-12-05T02:08:40.424Z,0.27
2018-12-05T02:11:14.180Z,0.30
2018-12-05T02:13:47.818Z,0.50
2018-12-05T02:16:21.617Z,0.30
2018-12-05T02:18:55.331Z,0.40
2018-12-05T02:21:29.005Z,0.53
2018-12-05T02:24:03.026Z,0.27
2018-12-05T02:26:36.786Z,0.40
2018-12-05T02:29:10.448Z,0.43
2018-12-05T02:31:44.044Z,0.50
2018-12-05T02:34:18.013Z,0.50
2018-12-05T02:36:51.828Z,0.50
2018-12-05T02:39:25.657Z,0.50
2018-12-05T02:41:59.210Z,0.40
2018-12-05T02:44:33.028Z,0.40
2018-12-05T02:47:06.798Z,0.60
2018-12-05T02:49:40.507Z,0.27
2018-12-05T02:52:14.364Z,0.30
2018-12-05T02:54:48.018Z,0.60
2018-12-05T02:57:21.699Z,0.47
2018-12-05T02:59:55.389Z,0.50
2018-12-05T03:02:29.265Z,0.53
2018-12-05T03:05:03.055Z,0.40
2018-12-05T03:07:36.799Z,0.53
2018-12-05T03:10:10.520Z,0.40
2018-12-05T03:12:44.125Z,0.60
2018-12-05T03:15:17.780Z,0.57
2018-12-05T03:17:51.471Z,0.50
2018-12-05T03:20:25.195Z,0.23
2018-12-05T03:22:58.945Z,0.50
2018-12-05T03:25:32.617Z,0.43
2018-12-05T03:28:06.345Z,0.50
2018-12-05T03:30:40.096Z,0.50
2018-12-05T03:33:13.631Z,0.37
2018-12-05T03:35:47.517Z,0.40
2018-12-05T03:38:21.365Z,0.43
2018-12-05T03:40:55.117Z,0.47
2018-12-05T03:43:29.004Z,0.60
2018-12-05T03:46:02.899Z,0.60
2018-12-05T03:48:36.577Z,0.40
2018-12-05T03:51:10.618Z,0.53
2018-12-05T03:53:51.129Z,0.60
2018-12-05T03:56:25.245Z,0.40
2018-12-05T03:58:59.160Z,0.30
2018-12-05T04:01:32.835Z,0.40
2018-12-05T04:04:06.767Z,0.43
2018-12-05T04:06:40.447Z,0.30
2018-12-05T04:09:14.267Z,0.57
2018-12-05T04:11:47.895Z,0.57
2018-12-05T04:14:21.800Z,0.37
2018-12-05T04:16:55.486Z,0.30
2018-12-05T04:19:29.422Z,0.40
2018-12-05T04:22:03.011Z,0.50
2018-12-05T04:24:36.862Z,0.40
2018-12-05T04:27:10.414Z,0.30
2018-12-05T04:29:44.290Z,0.30
2018-12-05T04:32:17.887Z,0.30
2018-12-05T04:34:51.583Z,0.50
2018-12-05T04:37:25.395Z,0.47
2018-12-05T04:39:59.193Z,0.20
2018-12-05T04:42:32.853Z,0.20
2018-12-05T04:45:06.799Z,0.40
2018-12-05T04:47:40.494Z,0.47
2018-12-05T04:50:14.258Z,0.53
2018-12-05T04:52:48.003Z,0.40
2018-12-05T04:55:21.797Z,0.27
2018-12-05T04:57:55.774Z,0.50
2018-12-05T05:00:29.385Z,0.30
2018-12-05T05:03:03.144Z,0.23
2018-12-05T05:05:36.831Z,0.40
2018-12-05T05:08:10.419Z,0.30
2018-12-05T05:10:44.340Z,0.40
2018-12-05T05:13:18.067Z,0.30
2018-12-05T05:15:51.826Z,0.50
2018-12-05T05:18:25.732Z,0.50
2018-12-05T05:20:59.608Z,0.50
2018-12-05T05:23:33.266Z,0.20
2018-12-05T05:26:07.175Z,0.50
2018-12-05T05:28:40.810Z,0.47
2018-12-05T05:31:14.619Z,0.50
2018-12-05T05:33:48.344Z,0.27
2018-12-05T05:36:22.153Z,0.40
2018-12-05T05:38:55.744Z,0.40
2018-12-05T05:41:29.616Z,0.20
2018-12-05T05:44:03.380Z,0.20
2018-12-05T05:46:37.103Z,0.40
2018-12-05T05:49:10.925Z,0.40
2018-12-05T05:51:44.758Z,0.40
2018-12-05T05:54:18.475Z,0.40
2018-12-05T05:56:52.600Z,0.40
2018-12-05T05:59:26.228Z,0.40
2018-12-05T06:01:59.957Z,0.37
2018-12-05T06:04:33.894Z,0.40
2018-12-05T06:07:07.622Z,0.90
2018-12-05T06:09:41.448Z,0.20
2018-12-05T06:12:15.148Z,0.27
2018-12-05T06:14:48.980Z,0.30
2018-12-05T06:17:22.737Z,0.50
2018-12-05T06:19:56.476Z,0.40
2018-12-05T06:22:30.207Z,0.30
2018-12-05T06:25:04.631Z,0.33
2018-12-05T06:27:38.303Z,0.50
2018-12-05T06:30:12.033Z,0.40
2018-12-05T06:32:45.632Z,0.20
2018-12-05T06:35:19.374Z,0.20
2018-12-05T06:37:53.071Z,0.60
2018-12-05T06:40:26.846Z,0.43
2018-12-05T06:43:00.337Z,0.50
2018-12-05T06:45:34.159Z,0.33
2018-12-05T06:48:07.835Z,0.30
2018-12-05T06:50:41.656Z,0.30
2018-12-05T06:53:15.342Z,0.40
2018-12-05T06:55:49.212Z,0.30
2018-12-05T06:58:22.920Z,0.40
2018-12-05T07:00:56.626Z,0.50
2018-12-05T07:03:30.340Z,0.27
2018-12-05T07:06:04.161Z,0.30
2018-12-05T07:08:37.841Z,0.40
2018-12-05T07:11:11.576Z,0.33
2018-12-05T07:13:45.348Z,0.27
2018-12-05T07:16:19.111Z,0.30
2018-12-05T07:18:52.950Z,0.20
2018-12-05T07:21:26.773Z,0.30
2018-12-05T07:24:00.568Z,0.47
2018-12-05T07:26:34.264Z,0.40
2018-12-05T07:29:07.991Z,0.20
2018-12-05T07:31:41.865Z,0.30
2018-12-05T07:34:15.528Z,0.30
2018-12-05T07:36:49.284Z,0.50
2018-12-05T07:39:22.943Z,0.30
2018-12-05T07:41:56.601Z,0.30
2018-12-05T07:44:30.336Z,0.13
2018-12-05T07:47:04.030Z,0.30
2018-12-05T07:49:37.858Z,0.30
2018-12-05T07:52:11.687Z,0.43
2018-12-05T07:54:45.388Z,0.40
2018-12-05T07:57:19.118Z,0.27
2018-12-05T07:59:52.705Z,0.37
2018-12-05T08:02:26.567Z,0.50
2018-12-05T08:05:00.191Z,0.40
2018-12-05T08:07:33.745Z,0.80
2018-12-05T08:10:07.601Z,0.40
2018-12-05T08:12:41.275Z,0.30
2018-12-05T08:15:15.131Z,0.40
2018-12-05T08:17:48.836Z,0.33
2018-12-05T08:20:22.619Z,0.23
2018-12-05T08:22:56.400Z,0.40
2018-12-05T08:25:30.148Z,0.27
2018-12-05T08:28:03.914Z,0.43
2018-12-05T08:30:37.556Z,0.50
2018-12-05T08:33:11.326Z,0.53
2018-12-05T08:35:45.196Z,0.30
2018-12-05T08:38:18.982Z,0.40
2018-12-05T08:40:52.829Z,0.60
2018-12-05T08:43:26.737Z,0.40
2018-12-05T08:46:00.462Z,0.20
2018-12-05T08:48:34.329Z,0.60
2018-12-05T08:51:08.056Z,0.60
2018-12-05T08:53:41.818Z,1.23
2018-12-05T08:56:15.497Z,0.50
2018-12-05T08:58:49.312Z,0.53
2018-12-05T09:01:23.058Z,0.50
2018-12-05T09:03:56.740Z,0.20
2018-12-05T09:06:30.274Z,0.40
2018-12-05T09:09:05.203Z,0.50
2018-12-05T09:11:38.742Z,0.20
2018-12-05T09:14:12.506Z,0.50
2018-12-05T09:16:46.198Z,0.40
2018-12-05T09:19:20.010Z,0.47
2018-12-05T09:21:53.613Z,0.33
2018-12-05T09:24:27.271Z,0.40
2018-12-05T09:27:00.953Z,0.50
2018-12-05T09:29:34.743Z,0.40
2018-12-05T09:32:08.642Z,0.50
2018-12-05T09:34:42.421Z,0.53
2018-12-05T09:37:16.103Z,0.33
2018-12-05T09:39:49.939Z,0.40
2018-12-05T09:42:23.537Z,0.30
2018-12-05T09:44:57.346Z,0.30
2018-12-05T09:47:31.178Z,0.30
2018-12-05T09:50:04.913Z,0.57
2018-12-05T09:52:38.834Z,0.40
2018-12-05T09:55:12.554Z,0.50
2018-12-05T09:57:46.367Z,0.50
2018-12-05T10:00:20.087Z,0.40
2018-12-05T10:02:53.771Z,0.20
2018-12-05T10:05:27.497Z,0.60
2018-12-05T10:08:01.322Z,0.23
2018-12-05T10:10:35.070Z,0.50
2018-12-05T10:13:08.964Z,1.00
2018-12-05T10:15:42.838Z,1.10
2018-12-05T10:18:16.608Z,0.80
2018-12-05T10:20:55.972Z,0.60
2018-12-05T10:23:26.106Z,0.30
2018-12-05T10:25:59.786Z,0.40
2018-12-05T10:28:33.582Z,0.30
2018-12-05T10:31:07.385Z,0.37
2018-12-05T10:33:41.036Z,0.20
2018-12-05T10:36:14.900Z,0.70
2018-12-05T10:38:48.591Z,0.53
2018-12-05T10:41:22.363Z,0.30
2018-12-05T10:43:56.114Z,0.47
2018-12-05T10:46:29.731Z,0.30
2018-12-05T10:49:03.322Z,0.30
2018-12-05T10:51:37.082Z,0.40
2018-12-05T10:54:10.859Z,0.30
2018-12-05T10:56:45.959Z,0.13
2018-12-05T10:59:19.774Z,0.37
2018-12-05T11:01:58.849Z,0.60
2018-12-05T11:04:37.826Z,0.50
2018-12-05T11:07:15.959Z,0.30
2018-12-05T11:09:54.928Z,0.40
2018-12-05T11:12:33.827Z,0.20
2018-12-05T11:15:12.922Z,0.30
2018-12-05T11:17:51.956Z,0.23
2018-12-05T11:20:31.090Z,0.47
2018-12-05T11:23:10.265Z,0.50
2018-12-05T11:25:44.543Z,0.30
2018-12-05T11:28:18.395Z,0.30
2018-12-05T11:30:52.057Z,0.40
2018-12-05T11:33:25.820Z,0.20
2018-12-05T11:35:59.407Z,0.30
2018-12-05T11:38:33.308Z,0.13
2018-12-05T11:41:06.917Z,0.60
2018-12-05T11:43:40.507Z,0.33
2018-12-05T11:46:14.359Z,0.37
2018-12-05T11:48:48.165Z,0.50
2018-12-05T11:51:21.977Z,0.50
2018-12-05T11:53:55.749Z,0.27
2018-12-05T11:56:29.570Z,0.40
2018-12-05T11:59:03.342Z,0.53
2018-12-05T12:01:37.166Z,0.50
2018-12-05T12:04:11.137Z,0.30
2018-12-05T12:06:44.868Z,0.40
2018-12-05T12:09:18.507Z,0.20
2018-12-05T12:11:52.308Z,0.63
2018-12-05T12:14:26.120Z,0.20
2018-12-05T12:16:59.871Z,0.50
2018-12-05T12:19:33.642Z,0.43
2018-12-05T12:22:07.386Z,0.40
2018-12-05T12:24:41.068Z,0.27
2018-12-05T12:27:14.868Z,0.20
2018-12-05T12:29:48.904Z,0.30
2018-12-05T12:32:22.805Z,0.50
2018-12-05T12:34:56.378Z,0.20
2018-12-05T12:37:30.139Z,0.40
2018-12-05T12:40:03.973Z,0.33
2018-12-05T12:42:37.759Z,0.40
2018-12-05T12:45:11.659Z,0.37
2018-12-05T12:47:45.347Z,0.20
2018-12-05T12:50:19.111Z,0.50
2018-12-05T12:52:52.732Z,0.50
2018-12-05T12:55:26.502Z,0.33
2018-12-05T12:58:00.264Z,0.20
2018-12-05T13:00:34.123Z,0.40
2018-12-05T13:03:07.859Z,0.60
2018-12-05T13:05:41.546Z,0.47
2018-12-05T13:08:16.135Z,0.40
2018-12-05T13:10:49.916Z,0.40
2018-12-05T13:13:23.794Z,0.53
2018-12-05T13:15:57.540Z,0.30
2018-12-05T13:18:31.124Z,0.70
2018-12-05T13:21:04.931Z,0.30
2018-12-05T13:23:38.598Z,0.33
2018-12-05T13:26:12.408Z,1.80
2018-12-05T13:28:46.102Z,0.40
2018-12-05T13:31:19.944Z,0.33
2018-12-05T13:33:53.826Z,0.40
2018-12-05T13:36:28.005Z,0.40
2018-12-05T13:39:01.587Z,0.30
2018-12-05T13:41:35.232Z,0.30
2018-12-05T13:44:08.897Z,0.40
2018-12-05T13:46:42.849Z,0.40
2018-12-05T13:49:16.685Z,0.30
2018-12-05T13:51:50.303Z,0.30
2018-12-05T13:54:24.044Z,0.57
2018-12-05T13:56:57.694Z,0.33
2018-12-05T13:59:31.572Z,0.40
2018-12-05T14:02:05.450Z,0.30
2018-12-05T14:04:39.188Z,0.60
2018-12-05T14:07:12.851Z,1.00
2018-12-05T14:09:46.799Z,0.97
2018-12-05T14:12:27.434Z,0.40
2018-12-05T14:15:01.319Z,0.40
2018-12-05T14:17:35.060Z,0.50
2018-12-05T14:20:09.048Z,0.30
2018-12-05T14:22:42.833Z,0.60
2018-12-05T14:25:16.573Z,0.40
2018-12-05T14:27:50.569Z,0.43
2018-12-05T14:30:24.467Z,0.40
2018-12-05T14:32:58.295Z,0.90
2018-12-05T14:35:31.983Z,0.40
2018-12-05T14:38:05.633Z,0.30
2018-12-05T14:40:39.458Z,0.30
2018-12-05T14:43:13.288Z,0.40
2018-12-05T14:45:47.181Z,0.40
2018-12-05T14:48:20.967Z,0.50
2018-12-05T14:50:54.808Z,0.60
2018-12-05T14:53:28.472Z,0.40
2018-12-05T14:56:02.337Z,0.40
2018-12-05T14:58:36.102Z,0.50
2018-12-05T15:01:09.901Z,0.30
2018-12-05T15:03:43.510Z,0.50
2018-12-05T15:06:17.361Z,0.30
2018-12-05T15:08:50.912Z,0.40
2018-12-05T15:11:24.681Z,0.47
2018-12-05T15:13:58.413Z,0.60
2018-12-05T15:16:32.149Z,0.40
2018-12-05T15:19:06.815Z,0.60
2018-12-05T15:21:40.628Z,0.40
2018-12-05T15:24:14.503Z,0.50
2018-12-05T15:26:48.395Z,0.63
2018-12-05T15:29:22.238Z,0.57
2018-12-05T15:31:56.084Z,0.67
2018-12-05T15:34:29.749Z,0.60
2018-12-05T15:37:03.708Z,0.87
2018-12-05T15:39:37.836Z,0.30
2018-12-05T15:42:11.602Z,0.50
2018-12-05T15:44:45.351Z,0.60
2018-12-05T15:47:19.048Z,0.50
2018-12-05T15:49:53.106Z,0.43
2018-12-05T15:52:27.019Z,0.67
2018-12-05T15:55:01.000Z,0.77
2018-12-05T15:57:34.790Z,0.50
2018-12-05T16:00:09.498Z,0.50
2018-12-05T16:02:43.266Z,0.60
2018-12-05T16:05:17.236Z,0.70
2018-12-05T16:07:51.089Z,0.63
2018-12-05T16:10:24.971Z,0.50
2018-12-05T16:12:58.740Z,0.40
2018-12-05T16:15:32.536Z,0.60
2018-12-05T16:18:09.268Z,0.60
2018-12-05T16:20:44.348Z,1.33
2018-12-05T16:23:25.061Z,0.80
2018-12-05T16:25:59.324Z,0.73
2018-12-05T16:28:33.878Z,0.93
2018-12-05T16:31:08.821Z,0.70
2018-12-05T16:33:43.534Z,0.63
2018-12-05T16:39:09.878Z,0.70
2018-12-05T16:41:46.346Z,0.70
2018-12-05T16:44:21.874Z,0.70
2018-12-05T16:46:55.666Z,0.60
2018-12-05T16:49:29.919Z,0.73
2018-12-05T16:52:03.795Z,0.70
2018-12-05T16:54:37.821Z,0.80
2018-12-05T16:57:11.656Z,0.70
2018-12-05T16:59:45.552Z,0.60
2018-12-05T17:02:19.312Z,0.60
2018-12-05T17:04:52.975Z,0.70
2018-12-05T17:07:26.909Z,1.00
2018-12-05T17:10:00.733Z,1.47
2018-12-05T17:12:34.503Z,1.60
2018-12-05T17:15:08.414Z,0.67
2018-12-05T17:17:42.205Z,0.63
2018-12-05T17:20:15.981Z,0.70
2018-12-05T17:22:49.829Z,0.77
2018-12-05T17:25:23.585Z,0.87
2018-12-05T17:27:57.271Z,0.90
2018-12-05T17:30:31.073Z,0.90
2018-12-05T17:33:04.718Z,0.83
2018-12-05T17:35:39.874Z,0.80
2018-12-05T17:38:13.880Z,0.87
2018-12-05T17:40:47.686Z,0.60
2018-12-05T17:43:21.624Z,0.70
2018-12-05T17:45:55.419Z,0.80
2018-12-05T17:48:29.597Z,0.53
2018-12-05T17:51:03.541Z,0.77
2018-12-05T17:53:37.336Z,0.80
2018-12-05T17:56:10.956Z,0.77
2018-12-05T17:58:44.781Z,1.13
2018-12-05T18:01:18.524Z,0.83
2018-12-05T18:03:52.312Z,0.90
2018-12-05T18:06:25.992Z,0.73
2018-12-05T18:08:59.634Z,0.90
2018-12-05T18:11:33.376Z,0.80
2018-12-05T18:14:07.047Z,0.70
2018-12-05T18:16:40.955Z,0.60
2018-12-05T18:19:14.867Z,0.60
2018-12-05T18:21:48.807Z,0.63
2018-12-05T18:24:22.702Z,0.83
2018-12-05T18:26:56.483Z,0.70
2018-12-05T18:29:30.342Z,1.00
2018-12-05T18:32:04.209Z,0.80
2018-12-05T18:34:38.101Z,0.70
2018-12-05T18:37:12.057Z,0.70
2018-12-05T18:39:45.866Z,0.80
2018-12-05T18:42:19.833Z,0.70
2018-12-05T18:44:53.845Z,0.90
2018-12-05T18:47:27.626Z,0.70
2018-12-05T18:50:01.465Z,1.53
2018-12-05T18:52:35.098Z,0.80
2018-12-05T18:55:08.969Z,1.10
2018-12-05T18:57:42.635Z,0.70
2018-12-05T19:00:16.470Z,1.00
2018-12-05T19:02:52.051Z,1.10
2018-12-05T19:05:26.036Z,1.00
2018-12-05T19:08:00.187Z,0.93
2018-12-05T19:10:34.108Z,0.80
2018-12-05T19:15:54.680Z,1.10
2018-12-05T19:18:28.430Z,1.00
2018-12-05T19:21:02.297Z,1.20
2018-12-05T19:23:36.199Z,1.17
2018-12-05T19:26:10.084Z,1.10
2018-12-05T19:28:44.107Z,1.20
2018-12-05T19:31:19.511Z,1.03
2018-12-05T19:33:53.564Z,1.00
2018-12-05T19:36:27.554Z,1.10
2018-12-05T19:39:01.474Z,1.30
2018-12-05T19:41:35.105Z,1.10
2018-12-05T19:44:08.986Z,1.50
2018-12-05T19:46:42.805Z,1.40
2018-12-05T19:49:16.707Z,1.50
2018-12-05T19:51:50.868Z,1.30
2018-12-05T19:54:25.449Z,1.30
2018-12-05T19:56:59.315Z,1.40
2018-12-05T19:59:33.286Z,1.30
2018-12-05T20:02:07.270Z,1.50
2018-12-05T20:04:41.098Z,1.50
2018-12-05T20:07:16.129Z,1.47
2018-12-05T20:09:50.256Z,1.50
2018-12-05T20:12:23.943Z,1.40
2018-12-05T20:14:57.560Z,1.43
2018-12-05T20:17:31.518Z,1.10
2018-12-05T20:20:05.840Z,1.03
2018-12-05T20:22:39.743Z,1.40
2018-12-05T20:25:13.636Z,1.20
2018-12-05T20:27:47.699Z,1.33
2018-12-05T20:30:23.000Z,1.87
2018-12-05T20:32:59.180Z,1.40
2018-12-05T20:35:33.096Z,1.23
2018-12-05T20:38:07.937Z,1.47
2018-12-05T20:40:41.971Z,1.43
2018-12-05T20:43:15.783Z,1.47
2018-12-05T20:45:49.824Z,1.70
2018-12-05T20:48:23.698Z,1.10
2018-12-05T20:50:58.611Z,1.30
2018-12-05T20:53:32.539Z,1.10
2018-12-05T20:56:06.323Z,1.30
2018-12-05T20:58:42.172Z,1.40
2018-12-05T21:01:16.650Z,1.30
2018-12-05T21:03:51.598Z,1.50
2018-12-05T21:06:26.651Z,1.13
2018-12-05T21:12:15.829Z,1.37
2018-12-05T21:14:50.938Z,1.30
2018-12-05T21:17:25.105Z,1.50
2018-12-05T21:19:59.304Z,1.40
2018-12-05T21:22:33.395Z,1.13
2018-12-05T21:25:07.509Z,1.20
2018-12-05T21:27:42.360Z,1.10
2018-12-05T21:30:16.205Z,1.40
2018-12-05T21:32:50.082Z,1.60
2018-12-05T21:35:23.911Z,1.23
2018-12-05T21:37:58.493Z,1.27
2018-12-05T21:40:32.548Z,1.23
2018-12-05T21:43:06.515Z,1.03
2018-12-05T21:45:40.275Z,1.30
2018-12-05T21:48:14.270Z,1.13
2018-12-05T21:50:47.993Z,1.40
2018-12-05T21:53:21.626Z,1.00
2018-12-05T21:55:55.476Z,1.23
2018-12-05T22:01:08.828Z,1.30
2018-12-05T22:03:42.696Z,1.37
2018-12-05T22:06:16.783Z,1.20
2018-12-05T22:08:50.959Z,1.40
2018-12-05T22:11:24.894Z,1.23
2018-12-05T22:13:58.683Z,1.57
2018-12-05T22:19:12.958Z,1.30
2018-12-05T22:21:46.942Z,1.20
2018-12-05T22:27:10.285Z,1.20
2018-12-05T22:32:25.298Z,1.63
2018-12-05T22:37:42.698Z,1.50
2018-12-05T22:43:00.886Z,1.83
2018-12-05T22:45:35.101Z,1.20
2018-12-05T22:48:09.527Z,1.20
2018-12-05T22:50:43.660Z,1.10
2018-12-05T22:53:17.752Z,2.57
2018-12-05T22:55:52.965Z,1.77
2018-12-05T22:58:30.764Z,1.57
2018-12-05T23:01:04.978Z,1.60
2018-12-05T23:06:18.280Z,1.43
2018-12-05T23:08:52.551Z,1.40
2018-12-05T23:14:04.755Z,1.50
2018-12-05T23:16:38.995Z,1.70
2018-12-05T23:19:20.151Z,1.53
2018-12-05T23:21:54.525Z,1.50
2018-12-05T23:24:29.918Z,1.80
2018-12-05T23:27:04.852Z,1.50
2018-12-05T23:29:42.548Z,1.80
2018-12-05T23:34:40.290Z,1.60
2018-12-05T23:41:35.602Z,1.30
2018-12-05T23:53:01.318Z,1.20
